createdAt,value
2023-02-13T00:00:49.363Z,31.67
2023-02-13T00:03:54.179Z,26.83
2023-02-13T00:06:57.472Z,30.10
2023-02-13T00:10:00.912Z,29.07
2023-02-13T00:13:04.240Z,31.75
2023-02-13T00:16:07.990Z,29.15
2023-02-13T00:19:11.157Z,29.97
2023-02-13T00:22:16.751Z,28.77
2023-02-13T00:25:20.004Z,26.67
2023-02-13T00:28:23.798Z,27.17
2023-02-13T00:31:27.072Z,27.10
2023-02-13T00:34:30.532Z,26.80
2023-02-13T00:37:34.352Z,27.40
2023-02-13T00:40:38.024Z,26.77
2023-02-13T00:43:44.584Z,27.60
2023-02-13T00:46:48.074Z,28.33
2023-02-13T00:49:53.184Z,28.53
2023-02-13T00:52:57.381Z,27.70
2023-02-13T00:56:00.938Z,28.33
2023-02-13T00:59:04.602Z,27.37
2023-02-13T01:02:07.880Z,25.92
2023-02-13T01:05:12.056Z,25.17
2023-02-13T01:08:17.037Z,25.95
2023-02-13T01:11:20.572Z,25.73
2023-02-13T01:14:23.899Z,25.08
2023-02-13T01:17:27.279Z,24.35
2023-02-13T01:20:31.310Z,21.37
2023-02-13T01:23:39.296Z,20.90
2023-02-13T01:26:42.653Z,19.62
2023-02-13T01:29:46.157Z,20.20
2023-02-13T01:32:49.564Z,20.00
2023-02-13T01:35:53.420Z,20.55
2023-02-13T01:38:58.641Z,21.77
2023-02-13T01:42:02.309Z,19.13
2023-02-13T01:45:21.139Z,19.92
2023-02-13T01:48:27.517Z,20.33
2023-02-13T01:51:35.328Z,20.30
2023-02-13T01:54:39.957Z,21.90
2023-02-13T01:57:47.555Z,19.77
2023-02-13T02:00:51.474Z,21.23
2023-02-13T02:04:17.911Z,21.65
2023-02-13T02:07:27.862Z,21.62
2023-02-13T02:10:34.855Z,22.00
2023-02-13T02:13:40.533Z,22.00
2023-02-13T02:16:44.523Z,22.05
2023-02-13T02:20:19.242Z,23.73
2023-02-13T02:23:50.429Z,18.70
2023-02-13T02:27:27.740Z,22.30
2023-02-13T02:31:16.002Z,22.17
2023-02-13T02:34:25.088Z,20.95
2023-02-13T02:38:01.606Z,23.85
2023-02-13T02:42:04.186Z,25.23
2023-02-13T02:45:35.375Z,27.05
2023-02-13T02:49:09.764Z,25.10
2023-02-13T02:52:21.560Z,24.80
2023-02-13T02:55:38.421Z,25.70
2023-02-13T02:59:30.763Z,23.27
2023-02-13T03:02:53.808Z,22.02
2023-02-13T03:06:11.576Z,21.65
2023-02-13T03:09:42.584Z,21.50
2023-02-13T03:13:37.068Z,21.12
2023-02-13T03:17:00.184Z,21.40
2023-02-13T03:20:33.290Z,22.30
2023-02-13T03:24:03.066Z,23.70
2023-02-13T03:27:57.557Z,21.83
2023-02-13T03:31:07.464Z,21.25
2023-02-13T03:34:20.507Z,21.30
2023-02-13T03:37:50.284Z,24.42
2023-02-13T03:41:30.435Z,24.40
2023-02-13T03:44:40.022Z,24.73
2023-02-13T03:47:45.518Z,23.67
2023-02-13T03:50:48.829Z,26.00
2023-02-13T03:53:57.352Z,25.10
2023-02-13T03:57:20.707Z,22.77
2023-02-13T04:00:28.329Z,24.00
2023-02-13T04:03:34.361Z,23.25
2023-02-13T04:07:29.682Z,24.40
2023-02-13T04:10:37.200Z,22.58
2023-02-13T04:13:48.739Z,21.52
2023-02-13T04:16:59.617Z,19.17
2023-02-13T04:20:04.925Z,22.33
2023-02-13T04:23:10.606Z,19.67
2023-02-13T04:26:23.695Z,20.12
2023-02-13T04:29:27.513Z,20.03
2023-02-13T04:32:30.682Z,22.80
2023-02-13T04:35:35.506Z,21.10
2023-02-13T04:38:39.015Z,21.43
2023-02-13T04:41:42.421Z,20.00
2023-02-13T04:44:45.561Z,22.05
2023-02-13T04:47:56.481Z,19.48
2023-02-13T04:50:59.923Z,19.52
2023-02-13T04:54:04.041Z,19.50
2023-02-13T04:57:07.346Z,20.88
2023-02-13T05:00:12.066Z,20.13
2023-02-13T05:03:15.252Z,22.75
2023-02-13T05:06:18.617Z,19.62
2023-02-13T05:09:22.244Z,18.63
2023-02-13T05:12:25.653Z,21.40
2023-02-13T05:15:28.981Z,23.00
2023-02-13T05:18:32.551Z,20.55
2023-02-13T05:21:54.440Z,19.87
2023-02-13T05:24:57.985Z,20.70
2023-02-13T05:28:01.587Z,20.73
2023-02-13T05:31:05.429Z,20.03
2023-02-13T05:34:08.771Z,19.65
2023-02-13T05:37:12.236Z,18.48
2023-02-13T05:40:15.639Z,20.87
2023-02-13T05:43:20.195Z,22.52
2023-02-13T05:46:23.410Z,18.62
2023-02-13T05:49:26.895Z,20.52
2023-02-13T05:52:30.265Z,21.37
2023-02-13T05:55:33.906Z,19.60
2023-02-13T05:58:37.566Z,19.98
2023-02-13T06:01:41.175Z,20.43
2023-02-13T06:04:44.622Z,20.77
2023-02-13T06:07:47.828Z,20.85
2023-02-13T06:10:51.471Z,22.07
2023-02-13T06:13:54.682Z,21.92
2023-02-13T06:16:58.100Z,24.83
2023-02-13T06:20:01.179Z,24.50
2023-02-13T06:23:04.741Z,21.83
2023-02-13T06:26:09.251Z,24.52
2023-02-13T06:29:13.054Z,27.27
2023-02-13T06:32:16.774Z,25.67
2023-02-13T06:35:20.344Z,30.55
2023-02-13T06:38:25.249Z,26.95
2023-02-13T06:41:28.905Z,22.83
2023-02-13T06:44:32.648Z,20.85
2023-02-13T06:47:36.228Z,21.67
2023-02-13T06:50:39.416Z,23.87
2023-02-13T06:53:42.718Z,20.27
2023-02-13T06:56:46.173Z,20.12
2023-02-13T06:59:49.624Z,21.02
2023-02-13T07:02:54.100Z,20.70
2023-02-13T07:05:57.697Z,22.70
2023-02-13T07:09:02.310Z,22.20
2023-02-13T07:12:06.253Z,24.57
2023-02-13T07:15:09.601Z,26.27
2023-02-13T07:18:13.355Z,22.77
2023-02-13T07:21:16.290Z,24.42
2023-02-13T07:24:19.918Z,24.23
2023-02-13T07:27:24.344Z,27.83
2023-02-13T07:30:27.870Z,28.75
2023-02-13T07:33:33.262Z,24.87
2023-02-13T07:36:37.887Z,21.83
2023-02-13T07:39:41.580Z,20.95
2023-02-13T07:42:45.362Z,20.40
2023-02-13T07:46:00.636Z,23.08
2023-02-13T07:49:06.978Z,23.17
2023-02-13T07:52:17.396Z,24.25
2023-02-13T07:55:21.320Z,21.25
2023-02-13T07:58:24.663Z,21.17
2023-02-13T08:01:28.408Z,22.65
2023-02-13T08:04:32.526Z,20.57
2023-02-13T08:07:36.056Z,18.52
2023-02-13T08:11:00.086Z,16.90
2023-02-13T08:14:03.246Z,19.40
2023-02-13T08:17:06.778Z,19.17
2023-02-13T08:20:10.673Z,20.10
2023-02-13T08:23:14.409Z,21.02
2023-02-13T08:26:18.523Z,19.55
2023-02-13T08:29:22.215Z,19.73
2023-02-13T08:32:26.282Z,17.08
2023-02-13T08:35:31.756Z,17.27
2023-02-13T08:38:35.111Z,18.42
2023-02-13T08:41:39.685Z,18.15
2023-02-13T08:44:42.877Z,16.90
2023-02-13T08:47:47.140Z,17.95
2023-02-13T08:50:50.483Z,18.00
2023-02-13T08:53:53.934Z,18.85
2023-02-13T08:56:57.884Z,16.65
2023-02-13T09:00:02.335Z,15.63
2023-02-13T09:03:06.514Z,14.23
2023-02-13T09:06:10.962Z,12.10
2023-02-13T09:09:14.294Z,12.95
2023-02-13T09:12:17.821Z,12.23
2023-02-13T09:15:21.557Z,11.77
2023-02-13T09:18:24.950Z,11.48
2023-02-13T09:21:28.208Z,12.60
2023-02-13T09:24:32.180Z,14.30
2023-02-13T09:27:36.046Z,12.45
2023-02-13T09:30:39.716Z,12.57
2023-02-13T09:33:44.416Z,13.07
2023-02-13T09:36:54.669Z,13.90
2023-02-13T09:39:57.838Z,11.95
2023-02-13T09:43:08.268Z,12.45
2023-02-13T09:46:13.629Z,12.70
2023-02-13T09:49:21.069Z,11.50
2023-02-13T09:52:28.641Z,10.07
2023-02-13T09:55:58.710Z,10.60
2023-02-13T09:59:37.853Z,11.63
2023-02-13T10:02:53.666Z,11.32
2023-02-13T10:06:10.025Z,12.88
2023-02-13T10:09:56.348Z,12.27
2023-02-13T10:13:41.356Z,12.77
2023-02-13T10:16:53.137Z,11.12
2023-02-13T10:20:02.347Z,11.10
2023-02-13T10:23:11.394Z,11.40
2023-02-13T10:26:42.800Z,10.88
2023-02-13T10:30:12.737Z,15.37
2023-02-13T10:33:41.323Z,11.50
2023-02-13T10:36:46.497Z,12.82
2023-02-13T10:39:53.464Z,12.07
2023-02-13T10:43:08.444Z,11.60
2023-02-13T10:46:26.585Z,12.33
2023-02-13T10:50:03.217Z,11.60
2023-02-13T10:53:21.047Z,11.07
2023-02-13T10:56:32.375Z,11.25
2023-02-13T11:00:08.591Z,12.13
2023-02-13T11:03:27.651Z,13.37
2023-02-13T11:06:33.388Z,12.50
2023-02-13T11:09:41.474Z,11.80
2023-02-13T11:12:46.178Z,11.82
2023-02-13T11:16:04.595Z,11.77
2023-02-13T11:19:18.133Z,13.03
2023-02-13T11:22:30.426Z,11.55
2023-02-13T11:25:34.507Z,13.55
2023-02-13T11:28:58.276Z,13.15
2023-02-13T11:32:15.516Z,13.27
2023-02-13T11:35:31.220Z,13.70
2023-02-13T11:38:35.104Z,13.45
2023-02-13T11:41:43.939Z,13.32
2023-02-13T11:44:58.615Z,14.98
2023-02-13T11:48:16.723Z,13.90
2023-02-13T11:51:39.137Z,13.63
2023-02-13T11:54:44.608Z,16.47
2023-02-13T11:58:00.874Z,13.07
2023-02-13T12:01:24.319Z,11.45
2023-02-13T12:04:27.810Z,11.25
2023-02-13T12:07:33.172Z,12.60
2023-02-13T12:10:38.521Z,14.18
2023-02-13T12:13:42.748Z,10.60
2023-02-13T12:16:54.080Z,11.20
2023-02-13T12:19:57.559Z,12.98
2023-02-13T12:23:26.969Z,11.07
2023-02-13T12:26:40.809Z,11.15
2023-02-13T12:29:47.392Z,11.25
2023-02-13T12:33:25.815Z,10.98
2023-02-13T12:36:51.235Z,10.70
2023-02-13T12:40:21.106Z,9.27
2023-02-13T12:43:58.796Z,9.57
2023-02-13T12:47:17.420Z,9.38
2023-02-13T12:50:49.390Z,7.55
2023-02-13T12:54:16.864Z,7.18
2023-02-13T12:57:42.877Z,7.50
2023-02-13T13:00:51.915Z,7.60
2023-02-13T13:04:20.375Z,7.07
2023-02-13T13:07:58.081Z,8.10
2023-02-13T13:11:07.672Z,7.85
2023-02-13T13:14:33.164Z,7.77
2023-02-13T13:18:04.559Z,7.50
2023-02-13T13:21:41.838Z,6.50
2023-02-13T13:25:03.402Z,5.80
2023-02-13T13:28:41.035Z,7.05
2023-02-13T13:31:53.236Z,5.67
2023-02-13T13:34:58.210Z,6.43
2023-02-13T13:38:26.492Z,6.35
2023-02-13T13:41:51.512Z,5.95
2023-02-13T13:44:58.279Z,5.20
2023-02-13T13:48:33.041Z,5.30
2023-02-13T13:51:36.908Z,5.80
2023-02-13T13:54:40.130Z,5.80
2023-02-13T13:57:44.844Z,6.15
2023-02-13T14:01:10.531Z,6.05
2023-02-13T14:04:32.333Z,8.90
2023-02-13T14:07:38.824Z,7.15
2023-02-13T14:11:02.113Z,7.90
2023-02-13T14:14:27.843Z,6.45
2023-02-13T14:17:46.557Z,8.00
2023-02-13T14:20:52.447Z,7.53
2023-02-13T14:24:00.867Z,7.28
2023-02-13T14:27:06.204Z,8.80
2023-02-13T14:30:38.170Z,7.75
2023-02-13T14:33:41.368Z,8.13
2023-02-13T14:37:30.347Z,7.43
2023-02-13T14:40:47.539Z,7.15
2023-02-13T14:43:54.165Z,7.57
2023-02-13T14:47:00.484Z,9.32
2023-02-13T14:50:07.094Z,8.35
2023-02-13T14:53:20.325Z,7.07
2023-02-13T14:56:24.702Z,6.68
2023-02-13T14:59:35.337Z,8.27
2023-02-13T15:02:48.424Z,7.05
2023-02-13T15:05:54.782Z,8.47
2023-02-13T15:09:02.352Z,7.60
2023-02-13T15:12:28.525Z,7.57
2023-02-13T15:15:36.564Z,7.10
2023-02-13T15:18:44.965Z,7.60
2023-02-13T15:21:58.735Z,7.57
2023-02-13T15:25:02.981Z,7.53
2023-02-13T15:28:15.557Z,7.05
2023-02-13T15:31:24.214Z,8.07
2023-02-13T15:34:36.316Z,7.45
2023-02-13T15:37:40.214Z,8.30
2023-02-13T15:40:44.861Z,7.87
2023-02-13T15:43:51.749Z,7.27
2023-02-13T15:47:08.852Z,8.10
2023-02-13T15:50:34.712Z,7.53
2023-02-13T15:53:53.370Z,7.90
2023-02-13T15:57:01.144Z,8.50
2023-02-13T16:00:07.330Z,9.23
2023-02-13T16:03:18.532Z,9.60
2023-02-13T16:06:24.360Z,11.00
2023-02-13T16:09:35.643Z,9.63
2023-02-13T16:12:47.340Z,9.15
2023-02-13T16:15:51.223Z,9.85
2023-02-13T16:18:55.641Z,9.87
2023-02-13T16:22:05.456Z,8.80
2023-02-13T16:25:13.625Z,9.02
2023-02-13T16:28:20.215Z,10.00
2023-02-13T16:31:25.398Z,11.18
2023-02-13T16:34:31.140Z,12.15
2023-02-13T16:37:36.151Z,12.70
2023-02-13T16:40:44.314Z,11.48
2023-02-13T16:43:52.119Z,12.07
2023-02-13T16:47:04.013Z,11.25
2023-02-13T16:50:16.370Z,15.77
2023-02-13T16:53:20.920Z,14.40
2023-02-13T16:56:25.076Z,14.48
2023-02-13T16:59:50.032Z,14.83
2023-02-13T17:02:55.249Z,16.75
2023-02-13T17:06:03.988Z,18.85
2023-02-13T17:09:08.587Z,20.73
2023-02-13T17:12:18.956Z,19.50
2023-02-13T17:15:26.764Z,14.85
2023-02-13T17:18:31.911Z,12.37
2023-02-13T17:21:36.882Z,12.20
2023-02-13T17:24:41.655Z,10.05
2023-02-13T17:27:47.072Z,10.10
2023-02-13T17:30:54.887Z,9.47
2023-02-13T17:34:00.067Z,8.55
2023-02-13T17:37:04.783Z,8.45
2023-02-13T17:40:18.815Z,9.57
2023-02-13T17:43:23.750Z,9.30
2023-02-13T17:46:29.403Z,9.63
2023-02-13T17:49:34.884Z,9.65
2023-02-13T17:52:41.673Z,10.00
2023-02-13T17:55:47.789Z,10.70
2023-02-13T17:58:53.062Z,11.93
2023-02-13T18:01:58.660Z,10.43
2023-02-13T18:05:11.557Z,11.25
2023-02-13T18:08:29.698Z,10.93
2023-02-13T18:11:34.796Z,12.00
2023-02-13T18:14:42.678Z,11.43
2023-02-13T18:17:49.071Z,11.45
2023-02-13T18:20:58.040Z,12.68
2023-02-13T18:24:04.925Z,14.90
2023-02-13T18:27:14.731Z,14.50
2023-02-13T18:30:22.564Z,15.13
2023-02-13T18:33:30.824Z,16.83
2023-02-13T18:36:36.828Z,16.90
2023-02-13T18:39:42.064Z,17.20
2023-02-13T18:42:51.277Z,14.10
2023-02-13T18:45:57.836Z,17.95
2023-02-13T18:49:05.084Z,16.48
2023-02-13T18:52:13.762Z,16.70
2023-02-13T18:55:22.705Z,16.60
2023-02-13T18:58:29.681Z,22.52
2023-02-13T19:01:37.164Z,23.80
2023-02-13T19:04:43.228Z,22.80
2023-02-13T19:07:48.766Z,20.73
2023-02-13T19:10:53.916Z,18.73
2023-02-13T19:14:01.210Z,18.30
2023-02-13T19:17:09.331Z,17.12
2023-02-13T19:20:18.230Z,15.52
2023-02-13T19:23:24.313Z,15.82
2023-02-13T19:26:30.308Z,16.17
2023-02-13T19:29:35.940Z,15.02
2023-02-13T19:32:41.682Z,15.65
2023-02-13T19:36:00.944Z,17.07
2023-02-13T19:39:09.747Z,16.25
2023-02-13T19:42:15.426Z,18.10
2023-02-13T19:45:21.071Z,19.02
2023-02-13T19:48:26.365Z,19.90
2023-02-13T19:51:34.023Z,21.37
2023-02-13T19:54:39.669Z,25.30
2023-02-13T19:57:45.589Z,26.00
2023-02-13T20:00:50.483Z,28.00
2023-02-13T20:04:00.839Z,26.25
2023-02-13T20:07:08.179Z,28.17
2023-02-13T20:10:15.032Z,27.45
2023-02-13T20:13:20.369Z,28.55
2023-02-13T20:16:25.690Z,26.73
2023-02-13T20:19:34.279Z,29.58
2023-02-13T20:22:40.653Z,29.08
2023-02-13T20:25:46.618Z,27.30
2023-02-13T20:28:52.592Z,24.00
2023-02-13T20:31:58.944Z,34.65
2023-02-13T20:35:07.671Z,33.92
2023-02-13T20:38:12.538Z,30.50
2023-02-13T20:41:21.729Z,32.33
2023-02-13T20:44:26.814Z,36.17
2023-02-13T20:47:35.956Z,37.88
2023-02-13T20:50:42.267Z,30.00
2023-02-13T20:53:47.809Z,28.42
2023-02-13T20:56:52.908Z,29.95
2023-02-13T20:59:59.778Z,29.17
2023-02-13T21:03:11.993Z,26.62
2023-02-13T21:06:17.736Z,25.58
2023-02-13T21:09:23.148Z,25.07
2023-02-13T21:12:30.244Z,22.40
2023-02-13T21:15:35.558Z,23.33
2023-02-13T21:18:41.538Z,26.33
2023-02-13T21:21:46.805Z,24.48
2023-02-13T21:24:52.059Z,22.85
2023-02-13T21:27:58.159Z,23.98
2023-02-13T21:31:10.727Z,21.30
2023-02-13T21:34:16.799Z,24.35
2023-02-13T21:37:20.823Z,21.00
2023-02-13T21:40:25.282Z,22.73
2023-02-13T21:43:30.400Z,23.23
2023-02-13T21:46:34.833Z,24.00
2023-02-13T21:49:39.482Z,23.55
2023-02-13T21:52:43.339Z,23.05
2023-02-13T21:55:47.000Z,22.52
2023-02-13T21:58:50.668Z,21.00
2023-02-13T22:01:56.830Z,20.20
2023-02-13T22:05:01.324Z,19.92
2023-02-13T22:08:11.036Z,19.48
2023-02-13T22:11:16.433Z,19.97
2023-02-13T22:14:19.620Z,19.52
2023-02-13T22:17:24.305Z,19.33
2023-02-13T22:20:27.598Z,19.30
2023-02-13T22:23:31.468Z,18.25
2023-02-13T22:26:36.692Z,20.20
2023-02-13T22:29:41.194Z,20.67
2023-02-13T22:32:44.554Z,19.30
2023-02-13T22:35:48.452Z,17.40
2023-02-13T22:38:52.728Z,17.27
2023-02-13T22:41:56.682Z,17.63
2023-02-13T22:44:59.902Z,17.60
2023-02-13T22:48:05.321Z,19.00
2023-02-13T22:51:10.432Z,15.77
2023-02-13T22:54:14.002Z,17.42
2023-02-13T22:57:17.177Z,18.02
2023-02-13T23:00:22.884Z,16.55
2023-02-13T23:03:26.408Z,17.73
2023-02-13T23:06:30.068Z,18.05
2023-02-13T23:09:33.538Z,16.85
2023-02-13T23:12:37.167Z,18.40
2023-02-13T23:15:40.358Z,16.40
2023-02-13T23:18:45.432Z,16.35
2023-02-13T23:21:48.925Z,14.68
2023-02-13T23:24:53.227Z,13.02
2023-02-13T23:27:59.035Z,14.02
2023-02-13T23:31:04.227Z,14.63
2023-02-13T23:34:07.484Z,14.57
2023-02-13T23:37:11.225Z,14.87
2023-02-13T23:40:16.115Z,14.80
2023-02-13T23:43:19.703Z,13.50
2023-02-13T23:46:22.829Z,14.75
2023-02-13T23:49:26.382Z,13.93
2023-02-13T23:52:29.686Z,18.12
2023-02-13T23:55:33.403Z,14.70
2023-02-13T23:58:36.517Z,15.50
